Time;durP1;ratioP1;P1;durP2;ratioP2;P2;SDS_P1;SDS_P2;PMS_P1;PMS_P2;Temp;Humidity;BMP_temperature;BMP_pressure;BME280_temperature;BME280_humidity;BME280_pressure;Samples;Min_cycle;Max_cycle;Signal;HPM_P1;HPM_P2
2023/03/21 00:00:29;;;;;;;5.88;3.40;;;7.60;77.20;;;;;;5030888;28;20022;-74
2023/03/21 00:02:55;;;;;;;4.93;3.10;;;7.60;77.30;;;;;;5034030;28;20030;-74
2023/03/21 00:05:20;;;;;;;7.93;3.63;;;7.60;77.40;;;;;;5034642;28;20068;-74
2023/03/21 00:07:46;;;;;;;7.78;2.63;;;7.60;77.50;;;;;;5034588;28;20032;-75
2023/03/21 00:10:12;;;;;;;6.40;3.17;;;7.50;77.90;;;;;;5034220;28;20497;-75
2023/03/21 00:12:38;;;;;;;5.65;2.55;;;7.40;78.10;;;;;;5034536;28;20049;-75
2023/03/21 00:15:06;;;;;;;6.28;2.70;;;7.40;78.30;;;;;;5034025;28;20049;-75
2023/03/21 00:17:32;;;;;;;4.20;2.25;;;7.40;78.50;;;;;;5033790;28;20494;-75
2023/03/21 00:19:59;;;;;;;4.97;2.55;;;7.30;78.50;;;;;;5034129;28;20025;-75
2023/03/21 00:22:26;;;;;;;6.30;2.72;;;7.30;78.80;;;;;;5034115;28;20021;-75
2023/03/21 00:24:52;;;;;;;4.47;2.50;;;7.20;78.70;;;;;;5034000;28;20021;-75
2023/03/21 00:27:20;;;;;;;6.05;2.88;;;7.20;78.80;;;;;;5033777;28;20425;-75
2023/03/21 00:29:48;;;;;;;3.88;2.60;;;7.20;78.70;;;;;;5034274;28;20056;-75
2023/03/21 00:32:14;;;;;;;5.68;2.22;;;7.20;78.60;;;;;;5034059;28;20030;-75
2023/03/21 00:34:41;;;;;;;2.88;1.92;;;7.20;78.60;;;;;;5033924;28;20029;-76
2023/03/21 00:37:07;;;;;;;3.20;2.38;;;7.20;78.70;;;;;;5033560;28;20390;-75
2023/03/21 00:39:34;;;;;;;4.97;2.55;;;7.20;78.70;;;;;;5033710;28;20043;-75
2023/03/21 00:41:59;;;;;;;6.68;2.58;;;7.10;79.00;;;;;;5033816;28;20041;-75
2023/03/21 00:44:25;;;;;;;3.35;2.17;;;7.00;79.00;;;;;;5033865;28;20025;-75
2023/03/21 00:46:51;;;;;;;4.07;2.45;;;6.90;79.50;;;;;;5033222;28;20022;-75
2023/03/21 00:49:21;;;;;;;4.97;2.13;;;6.90;79.70;;;;;;5033400;28;20029;-75
2023/03/21 00:51:50;;;;;;;5.15;2.45;;;6.90;79.80;;;;;;5033239;28;20025;-75
2023/03/21 00:54:16;;;;;;;4.25;2.25;;;6.80;79.70;;;;;;5033622;28;20040;-75
2023/03/21 00:56:42;;;;;;;3.35;2.10;;;6.90;79.60;;;;;;5033401;28;20041;-75
2023/03/21 00:59:08;;;;;;;5.28;2.10;;;6.80;79.40;;;;;;5036322;28;20029;-75
2023/03/21 01:01:34;;;;;;;6.45;2.35;;;6.80;79.50;;;;;;5033361;28;20121;-75
2023/03/21 01:04:06;;;;;;;4.90;2.15;;;6.80;79.50;;;;;;5033260;28;20037;-75
2023/03/21 01:06:39;;;;;;;7.88;1.88;;;6.80;79.50;;;;;;5032533;28;20112;-75
2023/03/21 01:09:06;;;;;;;4.07;2.15;;;6.80;79.30;;;;;;5033791;28;20030;-76
2023/03/21 01:11:33;;;;;;;4.68;1.98;;;6.80;79.20;;;;;;5033770;28;20021;-75
2023/03/21 01:13:59;;;;;;;3.38;2.13;;;6.90;79.20;;;;;;5032061;28;20029;-75
2023/03/21 01:16:25;;;;;;;4.95;2.05;;;6.80;78.90;;;;;;5032995;28;20445;-75
2023/03/21 01:18:51;;;;;;;2.58;1.70;;;6.80;79.00;;;;;;5033130;28;20025;-76
2023/03/21 01:21:17;;;;;;;2.63;1.75;;;6.80;78.90;;;;;;5032921;28;20033;-74
2023/03/21 01:23:43;;;;;;;2.60;1.60;;;6.90;79.00;;;;;;5032888;28;20036;-75
2023/03/21 01:26:09;;;;;;;4.55;1.90;;;6.90;79.00;;;;;;5032929;28;20026;-74
2023/03/21 01:28:37;;;;;;;2.88;1.73;;;7.00;78.50;;;;;;5033011;28;20021;-74
2023/03/21 01:31:04;;;;;;;3.63;1.88;;;7.00;78.20;;;;;;5032711;28;20028;-75
2023/03/21 01:33:31;;;;;;;5.85;2.20;;;7.00;77.90;;;;;;5032744;28;20025;-75
2023/03/21 01:35:58;;;;;;;5.05;2.10;;;7.10;77.80;;;;;;5033076;28;20037;-75
2023/03/21 01:38:24;;;;;;;3.10;2.10;;;7.10;77.70;;;;;;5033257;28;20049;-76
2023/03/21 01:40:50;;;;;;;4.53;1.92;;;7.00;77.60;;;;;;5035741;28;20485;-76
2023/03/21 01:43:20;;;;;;;3.58;1.80;;;7.10;77.90;;;;;;5033125;28;20033;-76
2023/03/21 01:46:27;;;;;;;3.92;1.73;;;7.10;77.70;;;;;;5032853;28;20478;-75
2023/03/21 01:49:05;;;;;;;5.65;2.10;;;7.10;77.60;;;;;;5033351;28;20030;-75
2023/03/21 01:51:36;;;;;;;2.33;1.67;;;7.10;77.60;;;;;;5033059;28;20067;-75
2023/03/21 01:54:05;;;;;;;2.53;1.75;;;7.10;77.40;;;;;;5033052;28;20429;-75
2023/03/21 01:56:36;;;;;;;4.97;1.83;;;7.20;77.30;;;;;;5032830;28;20111;-75
2023/03/21 01:59:11;;;;;;;5.57;2.38;;;7.10;77.40;;;;;;5033182;28;20017;-75
2023/03/21 02:01:41;;;;;;;4.30;1.55;;;7.10;77.50;;;;;;5032588;28;20021;-76
2023/03/21 02:04:07;;;;;;;5.15;2.08;;;7.20;77.50;;;;;;5032830;28;20025;-76
2023/03/21 02:06:48;;;;;;;3.92;1.90;;;7.20;77.40;;;;;;5032769;28;20029;-76
2023/03/21 02:09:19;;;;;;;4.15;1.90;;;7.30;77.20;;;;;;5033963;28;20079;-76
2023/03/21 02:11:45;;;;;;;3.40;2.05;;;7.30;77.10;;;;;;5032833;28;20029;-75
2023/03/21 02:14:17;;;;;;;5.57;2.10;;;7.30;77.00;;;;;;5033951;28;20022;-75
2023/03/21 02:16:47;;;;;;;3.05;2.17;;;7.30;76.90;;;;;;5032246;28;20087;-75
2023/03/21 02:19:45;;;;;;;3.28;1.98;;;7.30;76.90;;;;;;5032627;28;20021;-75
2023/03/21 02:22:19;;;;;;;5.95;2.65;;;7.30;77.30;;;;;;5013141;28;20152;-75
2023/03/21 02:24:53;;;;;;;4.63;2.67;;;7.30;77.50;;;;;;5032617;28;20030;-75
2023/03/21 02:27:22;;;;;;;4.47;2.28;;;7.30;77.20;;;;;;5032395;28;20560;-75
2023/03/21 02:30:16;;;;;;;6.68;2.50;;;7.30;77.20;;;;;;5033358;28;20030;-75
2023/03/21 02:32:50;;;;;;;3.00;2.20;;;7.40;77.00;;;;;;5032357;28;20032;-75
2023/03/21 02:35:42;;;;;;;3.92;2.17;;;7.50;76.90;;;;;;5032379;28;20347;-75
2023/03/21 02:38:33;;;;;;;5.72;2.25;;;7.50;76.60;;;;;;5031622;28;20124;-75
2023/03/21 02:41:32;;;;;;;5.57;2.55;;;7.60;76.30;;;;;;5032120;28;20095;-75
2023/03/21 02:44:28;;;;;;;3.35;2.58;;;7.60;76.20;;;;;;5032501;28;20029;-75
2023/03/21 02:47:02;;;;;;;8.50;2.97;;;7.50;76.40;;;;;;5032133;28;20025;-75
2023/03/21 02:49:55;;;;;;;5.38;2.75;;;7.40;76.70;;;;;;5032151;28;20025;-75
2023/03/21 02:52:32;;;;;;;3.72;2.70;;;7.30;77.20;;;;;;5031883;28;20022;-75
2023/03/21 02:54:59;;;;;;;6.30;2.72;;;7.30;77.20;;;;;;5031664;28;20025;-76
2023/03/21 02:57:25;;;;;;;4.82;2.47;;;7.30;77.40;;;;;;5031724;28;20076;-75
2023/03/21 02:59:52;;;;;;;4.57;2.35;;;7.30;77.60;;;;;;5031842;28;20025;-74
2023/03/21 03:02:22;;;;;;;6.20;2.95;;;7.30;77.80;;;;;;5031752;28;20026;-75
2023/03/21 03:04:48;;;;;;;5.50;3.10;;;7.30;77.60;;;;;;5031800;28;20096;-76
2023/03/21 03:07:30;;;;;;;4.38;3.22;;;7.30;77.60;;;;;;5031650;28;20022;-76
2023/03/21 03:10:22;;;;;;;7.55;2.80;;;7.30;77.80;;;;;;5032079;28;20028;-76
2023/03/21 03:13:02;;;;;;;4.90;3.22;;;7.30;77.80;;;;;;5032137;28;20478;-76
2023/03/21 03:15:57;;;;;;;5.57;2.85;;;7.40;77.90;;;;;;5031744;28;20022;-75
2023/03/21 03:18:34;;;;;;;5.50;3.20;;;7.40;77.70;;;;;;5031922;28;20536;-76
2023/03/21 03:21:15;;;;;;;7.18;3.30;;;7.40;77.70;;;;;;5031753;28;20033;-75
2023/03/21 03:23:47;;;;;;;9.95;3.70;;;7.40;77.60;;;;;;5031399;28;20025;-75
2023/03/21 03:26:26;;;;;;;6.90;3.40;;;7.40;77.50;;;;;;5031826;28;20030;-74
2023/03/21 03:28:55;;;;;;;4.95;2.97;;;7.40;77.50;;;;;;5031811;28;20076;-74
2023/03/21 03:31:29;;;;;;;7.55;2.90;;;7.30;77.50;;;;;;5031651;28;20071;-74
2023/03/21 03:34:05;;;;;;;5.57;2.67;;;7.30;77.70;;;;;;5031749;28;20490;-74
2023/03/21 03:36:37;;;;;;;8.00;2.53;;;7.30;77.70;;;;;;5032436;28;20064;-75
2023/03/21 03:39:07;;;;;;;5.65;2.65;;;7.30;77.80;;;;;;5035091;28;20049;-75
2023/03/21 03:41:44;;;;;;;6.88;2.90;;;7.30;77.90;;;;;;5035765;28;20083;-74
2023/03/21 03:44:11;;;;;;;5.32;2.88;;;7.30;77.80;;;;;;5035670;28;20072;-75
2023/03/21 03:46:49;;;;;;;4.65;2.67;;;7.30;77.80;;;;;;5035189;28;20028;-75
2023/03/21 03:49:24;;;;;;;5.13;2.85;;;7.20;77.90;;;;;;5035597;28;20026;-75
2023/03/21 03:51:56;;;;;;;4.32;2.10;;;7.30;78.00;;;;;;5035433;28;20389;-74
2023/03/21 03:54:31;;;;;;;7.88;3.20;;;7.20;78.00;;;;;;5035581;28;20025;-75
2023/03/21 03:56:57;;;;;;;5.40;3.03;;;7.10;78.30;;;;;;5035220;28;20040;-76
2023/03/21 03:59:23;;;;;;;7.35;3.17;;;7.10;78.50;;;;;;5035389;28;20406;-76
2023/03/21 04:01:50;;;;;;;6.07;2.83;;;7.00;78.70;;;;;;5035285;28;20045;-76
2023/03/21 04:04:15;;;;;;;4.60;2.60;;;6.90;79.10;;;;;;5035092;28;20463;-76
2023/03/21 04:06:50;;;;;;;7.80;2.72;;;6.90;79.30;;;;;;5035061;28;20083;-76
2023/03/21 04:09:16;;;;;;;5.93;2.70;;;6.90;79.50;;;;;;5035368;28;20120;-75
2023/03/21 04:11:42;;;;;;;7.78;3.22;;;6.90;79.60;;;;;;5034792;28;20036;-75
2023/03/21 04:14:07;;;;;;;8.02;3.47;;;6.90;80.30;;;;;;5034984;28;20113;-75
2023/03/21 04:16:33;;;;;;;6.75;3.00;;;6.90;79.50;;;;;;5034741;28;20044;-75
2023/03/21 04:18:59;;;;;;;9.35;3.55;;;6.80;79.50;;;;;;5034828;28;20171;-76
2023/03/21 04:21:26;;;;;;;8.23;2.50;;;6.80;80.50;;;;;;5034713;28;20473;-75
2023/03/21 04:23:53;;;;;;;4.78;3.00;;;6.70;80.00;;;;;;5018333;28;20202;-76
2023/03/21 04:26:23;;;;;;;4.88;2.47;;;6.70;80.00;;;;;;5034915;28;20558;-76
2023/03/21 04:28:49;;;;;;;3.78;2.47;;;6.60;80.20;;;;;;5034705;28;20076;-76
2023/03/21 04:31:16;;;;;;;4.82;2.63;;;6.60;80.20;;;;;;5034527;28;20104;-76
2023/03/21 04:33:42;;;;;;;4.53;2.33;;;6.60;80.40;;;;;;5034356;28;20109;-76
2023/03/21 04:36:09;;;;;;;7.30;2.70;;;6.50;80.80;;;;;;5034220;28;20030;-75
2023/03/21 04:38:35;;;;;;;4.63;2.60;;;6.50;81.10;;;;;;5034221;28;20485;-75
2023/03/21 04:41:01;;;;;;;4.85;2.63;;;6.40;81.30;;;;;;5034493;28;20489;-76
2023/03/21 04:43:27;;;;;;;6.50;2.50;;;6.40;81.20;;;;;;5034362;28;20048;-77
2023/03/21 04:45:53;;;;;;;6.70;2.47;;;6.40;81.20;;;;;;5034429;28;20072;-75
2023/03/21 04:48:23;;;;;;;3.88;2.45;;;6.30;81.40;;;;;;5032911;28;20040;-75
2023/03/21 04:50:49;;;;;;;5.72;2.60;;;6.20;81.60;;;;;;5034015;28;20021;-76
2023/03/21 04:53:15;;;;;;;4.93;2.70;;;6.20;81.80;;;;;;5035055;28;20467;-75
2023/03/21 04:55:41;;;;;;;6.43;3.00;;;6.10;81.90;;;;;;5033783;28;20040;-75
2023/03/21 04:58:07;;;;;;;6.55;3.05;;;6.10;81.80;;;;;;5033997;28;20025;-75
2023/03/21 05:00:37;;;;;;;4.22;2.65;;;6.20;81.50;;;;;;5034083;28;20021;-75
2023/03/21 05:03:07;;;;;;;5.97;2.70;;;6.20;81.30;;;;;;5033932;28;20060;-74
2023/03/21 05:05:36;;;;;;;5.57;2.40;;;6.10;81.90;;;;;;5033682;28;20053;-75
2023/03/21 05:08:02;;;;;;;5.90;2.90;;;6.10;81.40;;;;;;5032798;28;20036;-74
2023/03/21 05:10:27;;;;;;;3.90;2.28;;;6.10;81.30;;;;;;5037055;28;20029;-75
2023/03/21 05:12:53;;;;;;;4.70;2.67;;;6.10;81.30;;;;;;5033752;28;20079;-74
2023/03/21 05:15:19;;;;;;;4.55;2.58;;;6.20;81.20;;;;;;5033578;28;20022;-74
2023/03/21 05:17:47;;;;;;;6.80;2.70;;;6.10;81.60;;;;;;5033727;28;20029;-75
2023/03/21 05:20:16;;;;;;;5.45;3.28;;;6.10;81.50;;;;;;5033480;28;20021;-75
2023/03/21 05:22:44;;;;;;;7.75;3.45;;;6.10;81.40;;;;;;5033013;28;20026;-75
2023/03/21 05:25:12;;;;;;;6.45;3.35;;;6.10;80.60;;;;;;5032952;28;20029;-75
2023/03/21 05:27:43;;;;;;;8.35;3.63;;;6.10;80.60;;;;;;5033484;28;20386;-75
2023/03/21 05:30:16;;;;;;;6.32;4.00;;;6.00;80.40;;;;;;5033340;28;20227;-74
2023/03/21 05:32:42;;;;;;;11.20;4.38;;;6.00;80.30;;;;;;5033358;28;20029;-74
2023/03/21 05:35:08;;;;;;;13.68;4.60;;;6.00;80.30;;;;;;5033459;28;20025;-74
2023/03/21 05:37:34;;;;;;;8.20;3.58;;;5.90;80.50;;;;;;5033045;28;20394;-74
2023/03/21 05:39:59;;;;;;;7.10;3.10;;;5.90;80.60;;;;;;5033342;28;20026;-73
2023/03/21 05:42:25;;;;;;;7.13;3.47;;;5.90;80.60;;;;;;5033137;28;20036;-74
2023/03/21 05:44:51;;;;;;;7.50;3.60;;;6.00;80.70;;;;;;5032873;28;20022;-74
2023/03/21 05:47:17;;;;;;;7.05;3.05;;;6.00;80.60;;;;;;5033039;28;20052;-74
2023/03/21 05:49:46;;;;;;;7.93;3.53;;;6.00;80.60;;;;;;5032847;28;20021;-75
2023/03/21 05:52:11;;;;;;;7.10;3.50;;;6.00;80.30;;;;;;5032969;28;20031;-75
2023/03/21 05:54:37;;;;;;;29.65;16.33;;;5.90;81.10;;;;;;5033080;28;20383;-75
2023/03/21 05:57:04;;;;;;;29.75;18.67;;;6.00;80.00;;;;;;5033036;28;20029;-75
2023/03/21 05:59:29;;;;;;;10.60;4.90;;;6.00;79.80;;;;;;5032635;28;20227;-74
2023/03/21 06:01:55;;;;;;;8.82;3.88;;;5.90;79.90;;;;;;5032611;28;20124;-75
2023/03/21 06:04:20;;;;;;;6.80;3.38;;;5.80;80.20;;;;;;5032713;28;20025;-74
2023/03/21 06:06:46;;;;;;;5.35;3.50;;;5.90;80.20;;;;;;5032761;28;20082;-73
2023/03/21 06:09:12;;;;;;;7.15;3.47;;;5.90;80.00;;;;;;5032141;28;20033;-75
2023/03/21 06:11:47;;;;;;;11.88;4.82;;;5.90;79.90;;;;;;5032622;28;20390;-74
2023/03/21 06:14:13;;;;;;;6.45;3.72;;;6.00;79.80;;;;;;5032396;28;20028;-73
2023/03/21 06:16:39;;;;;;;7.10;3.38;;;6.00;79.60;;;;;;5032116;28;20033;-73
2023/03/21 06:19:04;;;;;;;7.85;3.53;;;6.00;79.60;;;;;;5032297;28;20044;-73
2023/03/21 06:21:30;;;;;;;5.75;3.70;;;6.00;79.50;;;;;;5032348;28;20041;-73
2023/03/21 06:23:55;;;;;;;8.80;3.65;;;6.00;79.40;;;;;;5032233;28;20075;-74
2023/03/21 06:26:22;;;;;;;12.73;4.18;;;6.00;79.40;;;;;;5032127;28;20482;-74
2023/03/21 06:28:52;;;;;;;10.60;3.40;;;6.10;79.40;;;;;;5031711;28;20064;-74
2023/03/21 06:31:21;;;;;;;12.68;4.05;;;6.20;79.80;;;;;;5031453;28;20383;-74
2023/03/21 06:33:50;;;;;;;7.18;3.75;;;6.20;79.50;;;;;;5032105;28;20116;-75
2023/03/21 06:36:16;;;;;;;6.38;3.90;;;6.30;78.50;;;;;;5031960;28;20038;-75
2023/03/21 06:38:42;;;;;;;6.18;3.95;;;6.40;78.10;;;;;;5031622;28;20449;-75
2023/03/21 06:41:09;;;;;;;7.43;3.90;;;6.50;78.00;;;;;;5032866;28;20032;-74
2023/03/21 06:43:34;;;;;;;7.88;4.00;;;6.50;77.80;;;;;;5031791;28;20075;-75
2023/03/21 06:46:01;;;;;;;10.13;4.38;;;6.60;77.50;;;;;;5032931;28;20021;-75
2023/03/21 06:48:27;;;;;;;7.78;4.13;;;6.70;77.20;;;;;;5031679;28;20032;-76
2023/03/21 06:50:54;;;;;;;7.13;3.60;;;6.70;77.10;;;;;;5033047;28;20021;-75
2023/03/21 06:53:23;;;;;;;5.97;3.60;;;6.80;76.60;;;;;;5031751;28;20029;-76
2023/03/21 06:55:53;;;;;;;5.43;3.35;;;6.80;76.30;;;;;;5031358;28;20065;-75
2023/03/21 06:58:19;;;;;;;7.93;3.58;;;6.90;76.40;;;;;;5031430;28;20032;-74
2023/03/21 07:00:45;;;;;;;7.32;3.30;;;6.80;76.30;;;;;;5031861;28;20028;-75
2023/03/21 07:03:12;;;;;;;8.63;3.60;;;7.00;76.30;;;;;;5031630;28;20029;-75
2023/03/21 07:05:38;;;;;;;8.27;3.85;;;7.00;75.90;;;;;;5031588;28;20072;-74
2023/03/21 07:08:05;;;;;;;9.52;4.28;;;7.10;75.90;;;;;;5031586;28;20025;-74
2023/03/21 07:10:30;;;;;;;6.68;4.35;;;7.20;75.60;;;;;;5030832;28;20025;-75
2023/03/21 07:12:58;;;;;;;11.15;3.92;;;7.30;75.40;;;;;;5030645;28;20039;-74
2023/03/21 07:15:24;;;;;;;5.15;3.88;;;7.50;75.00;;;;;;5031269;28;20112;-75
2023/03/21 07:17:50;;;;;;;9.60;4.20;;;7.60;74.80;;;;;;5030984;28;20490;-74
2023/03/21 07:20:16;;;;;;;6.68;3.53;;;7.80;74.20;;;;;;5031267;28;20075;-75
2023/03/21 07:22:42;;;;;;;10.57;4.47;;;7.90;73.30;;;;;;5032325;28;20052;-75
2023/03/21 07:25:09;;;;;;;7.10;3.85;;;8.10;73.00;;;;;;5031232;28;20025;-75
2023/03/21 07:27:35;;;;;;;9.07;3.97;;;8.20;72.20;;;;;;5031156;28;20075;-75
2023/03/21 07:30:01;;;;;;;5.32;3.40;;;8.50;71.80;;;;;;5032515;28;20026;-75
2023/03/21 07:32:28;;;;;;;7.13;3.42;;;8.60;71.30;;;;;;5031388;28;20022;-75
2023/03/21 07:34:54;;;;;;;8.05;3.78;;;8.80;70.90;;;;;;5031308;28;20386;-75
2023/03/21 07:37:20;;;;;;;7.93;3.78;;;8.90;70.50;;;;;;5031059;28;20068;-75
2023/03/21 07:39:46;;;;;;;11.93;4.40;;;9.10;70.30;;;;;;5032776;28;20459;-76
2023/03/21 07:42:11;;;;;;;12.00;3.92;;;9.30;69.90;;;;;;5031221;28;20022;-76
2023/03/21 07:44:37;;;;;;;11.48;5.65;;;9.50;69.00;;;;;;5031449;28;20112;-75
2023/03/21 07:47:04;;;;;;;6.85;4.20;;;9.60;68.40;;;;;;5031256;28;20028;-75
2023/03/21 07:49:30;;;;;;;6.07;3.80;;;9.80;68.20;;;;;;5031394;28;20033;-76
2023/03/21 07:51:56;;;;;;;5.40;3.58;;;10.00;67.50;;;;;;5030266;28;20021;-78
2023/03/21 07:54:22;;;;;;;7.45;3.78;;;10.20;66.90;;;;;;5030829;28;20532;-80
2023/03/21 07:56:48;;;;;;;4.63;3.25;;;10.40;66.20;;;;;;5030599;28;20033;-82
2023/03/21 07:59:13;;;;;;;13.85;3.60;;;10.60;66.00;;;;;;5031409;28;20033;-80
2023/03/21 08:01:39;;;;;;;4.55;3.22;;;10.70;65.10;;;;;;5030942;28;20079;-82
2023/03/21 08:04:07;;;;;;;6.65;3.40;;;10.80;64.70;;;;;;5031143;28;20064;-80
2023/03/21 08:06:32;;;;;;;4.38;2.78;;;10.90;65.00;;;;;;5032273;28;20030;-75
2023/03/21 08:08:58;;;;;;;6.72;3.08;;;11.10;65.40;;;;;;5031292;28;20041;-80
2023/03/21 08:11:24;;;;;;;7.68;3.25;;;11.30;64.50;;;;;;5014940;28;20030;-84
2023/03/21 08:13:51;;;;;;;6.03;2.72;;;11.50;63.30;;;;;;5031147;28;20030;-76
2023/03/21 08:16:17;;;;;;;3.75;2.60;;;11.60;61.40;;;;;;5031376;28;20159;-76
2023/03/21 08:18:42;;;;;;;3.38;2.35;;;11.80;61.30;;;;;;5030843;28;20024;-76
2023/03/21 08:21:08;;;;;;;6.22;2.80;;;12.00;59.00;;;;;;5030998;28;20038;-77
2023/03/21 08:23:35;;;;;;;9.75;5.95;;;12.30;59.30;;;;;;5033258;28;20029;-76
2023/03/21 08:26:00;;;;;;;8.50;4.50;;;12.50;58.90;;;;;;5034538;28;20025;-76
2023/03/21 08:28:26;;;;;;;6.13;3.28;;;12.70;58.30;;;;;;5034580;28;20024;-76
2023/03/21 08:30:52;;;;;;;4.15;2.88;;;12.80;57.80;;;;;;5034433;28;20025;-77
2023/03/21 08:33:19;;;;;;;4.57;2.70;;;12.90;57.40;;;;;;5034503;28;20029;-77
2023/03/21 08:35:45;;;;;;;7.32;2.42;;;13.10;57.60;;;;;;5034113;28;20025;-77
2023/03/21 08:38:12;;;;;;;4.35;2.97;;;13.20;56.70;;;;;;5033872;28;20494;-77
2023/03/21 08:40:38;;;;;;;10.95;2.85;;;13.30;54.50;;;;;;5033979;28;20394;-77
2023/03/21 08:43:04;;;;;;;7.82;2.80;;;13.40;55.20;;;;;;5034084;28;20078;-76
2023/03/21 08:45:30;;;;;;;5.45;2.78;;;13.50;54.70;;;;;;5033721;28;20025;-77
2023/03/21 08:47:57;;;;;;;3.47;2.22;;;13.70;54.30;;;;;;5034246;28;20047;-77
2023/03/21 08:50:25;;;;;;;6.40;2.58;;;13.80;53.90;;;;;;5033955;28;20021;-76
2023/03/21 08:52:51;;;;;;;5.22;2.75;;;14.20;54.40;;;;;;5035480;28;20053;-76
2023/03/21 08:55:18;;;;;;;4.72;2.90;;;14.40;51.50;;;;;;5033844;28;20107;-76
2023/03/21 08:57:44;;;;;;;10.20;3.55;;;14.50;51.80;;;;;;5033696;28;20156;-75
2023/03/21 09:00:13;;;;;;;10.32;2.92;;;14.70;55.20;;;;;;5034177;28;20036;-73
2023/03/21 09:02:41;;;;;;;3.50;1.95;;;15.10;54.70;;;;;;5035291;28;20470;-77
2023/03/21 09:05:07;;;;;;;7.28;1.92;;;15.50;52.80;;;;;;5033842;28;20029;-76
2023/03/21 09:07:35;;;;;;;6.35;2.15;;;15.90;52.10;;;;;;5034607;28;20025;-76
2023/03/21 09:10:02;;;;;;;7.25;2.30;;;16.20;49.50;;;;;;5033583;28;20444;-76
2023/03/21 09:12:28;;;;;;;3.00;1.98;;;16.40;47.30;;;;;;5033942;28;20100;-76
2023/03/21 09:14:54;;;;;;;2.28;1.70;;;16.60;47.30;;;;;;5033907;28;20581;-76
2023/03/21 09:17:19;;;;;;;7.00;2.55;;;16.70;46.00;;;;;;5033426;28;20190;-73
2023/03/21 09:19:48;;;;;;;4.88;1.90;;;16.80;44.00;;;;;;5033171;28;20022;-75
2023/03/21 09:22:16;;;;;;;2.35;1.80;;;16.70;43.70;;;;;;5037617;28;20025;-74
2023/03/21 09:24:46;;;;;;;2.42;1.73;;;16.70;44.90;;;;;;5035522;28;20083;-75
2023/03/21 09:27:14;;;;;;;5.40;2.63;;;16.90;44.30;;;;;;5033172;28;20029;-75
2023/03/21 09:29:42;;;;;;;3.03;1.80;;;16.90;43.00;;;;;;5033361;28;20393;-76
2023/03/21 09:32:08;;;;;;;3.45;1.70;;;17.00;44.90;;;;;;5034382;28;20441;-76
2023/03/21 09:34:35;;;;;;;2.75;2.08;;;17.20;44.20;;;;;;5033343;28;20022;-76
2023/03/21 09:37:02;;;;;;;2.85;1.90;;;17.30;40.80;;;;;;5033756;28;20086;-76
2023/03/21 09:39:28;;;;;;;5.55;3.78;;;17.10;41.10;;;;;;5033340;28;20037;-76
2023/03/21 09:42:10;;;;;;;3.63;2.33;;;17.30;42.40;;;;;;5034164;28;20033;-77
2023/03/21 09:44:54;;;;;;;5.03;2.50;;;17.10;41.90;;;;;;5033657;28;20025;-75
2023/03/21 09:47:38;;;;;;;6.35;3.17;;;16.90;42.90;;;;;;5033374;28;20530;-76
2023/03/21 09:50:16;;;;;;;4.45;2.78;;;16.60;44.40;;;;;;5032684;28;20108;-74
2023/03/21 09:53:19;;;;;;;2.55;2.35;;;16.30;44.20;;;;;;5032747;28;20076;-74
2023/03/21 09:55:46;;;;;;;3.65;2.78;;;16.10;46.10;;;;;;5020766;28;20138;-74
2023/03/21 09:58:40;;;;;;;4.72;2.58;;;16.00;46.10;;;;;;5033525;28;20143;-75
2023/03/21 10:01:20;;;;;;;4.15;2.40;;;15.80;46.90;;;;;;5033801;28;20032;-75
2023/03/21 10:03:49;;;;;;;7.60;2.53;;;15.80;47.10;;;;;;5033696;28;20459;-75
2023/03/21 10:06:15;;;;;;;2.70;2.10;;;15.90;47.10;;;;;;5033266;28;20159;-74
2023/03/21 10:08:45;;;;;;;3.03;2.47;;;15.90;47.10;;;;;;5033618;28;20100;-74
2023/03/21 10:11:14;;;;;;;4.00;2.10;;;16.00;46.90;;;;;;5033587;28;20394;-74
2023/03/21 10:13:54;;;;;;;4.63;2.58;;;16.20;46.80;;;;;;5033165;28;20359;-75
2023/03/21 10:16:42;;;;;;;2.97;2.22;;;16.40;46.20;;;;;;5032911;28;20052;-74
2023/03/21 10:19:13;;;;;;;3.17;2.17;;;16.50;46.30;;;;;;5033283;28;20033;-75
2023/03/21 10:21:42;;;;;;;3.45;2.20;;;16.50;46.00;;;;;;5033348;28;20494;-75
2023/03/21 10:24:18;;;;;;;4.07;2.28;;;16.40;45.80;;;;;;5032937;28;20076;-74
2023/03/21 10:26:45;;;;;;;4.50;2.50;;;16.30;45.70;;;;;;5032745;28;20028;-75
2023/03/21 10:29:15;;;;;;;2.65;2.03;;;16.30;46.10;;;;;;5032992;28;20033;-75
2023/03/21 10:31:42;;;;;;;5.40;2.30;;;16.40;46.10;;;;;;5033149;28;20021;-75
2023/03/21 10:34:31;;;;;;;3.80;2.17;;;16.50;45.30;;;;;;5033025;28;20382;-75
2023/03/21 10:37:00;;;;;;;4.05;2.05;;;16.40;43.60;;;;;;5032757;28;20084;-75
2023/03/21 10:39:31;;;;;;;5.10;2.88;;;16.10;44.70;;;;;;5032786;28;20520;-75
2023/03/21 10:41:57;;;;;;;5.68;2.97;;;16.20;44.80;;;;;;5032813;28;20025;-74
2023/03/21 10:44:29;;;;;;;2.90;2.17;;;16.10;43.90;;;;;;5032924;28;20032;-74
2023/03/21 10:47:04;;;;;;;5.05;2.55;;;16.10;45.20;;;;;;5031933;28;20052;-74
2023/03/21 10:49:30;;;;;;;5.25;2.28;;;16.00;45.30;;;;;;5033141;28;20056;-74
2023/03/21 10:52:00;;;;;;;2.88;1.95;;;16.00;45.00;;;;;;5032804;28;20040;-74
2023/03/21 10:54:30;;;;;;;2.90;1.70;;;16.00;45.60;;;;;;5032392;28;20028;-76
2023/03/21 10:56:57;;;;;;;4.32;1.90;;;15.80;45.20;;;;;;5032494;28;20124;-76
2023/03/21 10:59:25;;;;;;;2.92;1.90;;;15.90;45.00;;;;;;5032422;28;20466;-76
2023/03/21 11:01:54;;;;;;;6.15;1.98;;;16.00;45.60;;;;;;5032975;28;20101;-76
2023/03/21 11:04:27;;;;;;;5.30;2.40;;;16.00;47.70;;;;;;5032457;28;20022;-76
2023/03/21 11:06:59;;;;;;;4.43;2.20;;;16.00;44.90;;;;;;5032302;28;20044;-76
2023/03/21 11:09:41;;;;;;;1.77;1.60;;;15.90;44.40;;;;;;5032494;28;20041;-76
2023/03/21 11:12:16;;;;;;;2.20;1.70;;;15.90;44.60;;;;;;5030779;28;20029;-76
2023/03/21 11:14:48;;;;;;;3.42;1.65;;;16.20;44.50;;;;;;5030489;28;20025;-75
2023/03/21 11:17:16;;;;;;;2.67;1.40;;;16.30;42.30;;;;;;5032415;28;20036;-74
2023/03/21 11:19:48;;;;;;;1.63;1.20;;;16.40;41.50;;;;;;5032294;28;20467;-74
2023/03/21 11:22:15;;;;;;;3.28;1.30;;;16.30;39.10;;;;;;5032248;28;20021;-74
2023/03/21 11:24:46;;;;;;;2.88;1.48;;;16.30;40.30;;;;;;5032521;28;20033;-74
2023/03/21 11:27:12;;;;;;;4.00;1.50;;;16.10;42.60;;;;;;5032592;28;20037;-75
2023/03/21 11:29:44;;;;;;;2.15;1.35;;;16.00;43.00;;;;;;5032392;28;20026;-75
2023/03/21 11:32:25;;;;;;;1.23;1.10;;;15.90;43.40;;;;;;5032225;28;20441;-75
2023/03/21 11:34:56;;;;;;;1.08;0.75;;;15.80;40.30;;;;;;5026549;28;20423;-75
2023/03/21 11:37:36;;;;;;;4.13;1.13;;;15.60;38.30;;;;;;5027757;28;20103;-75
2023/03/21 11:40:18;;;;;;;4.68;1.60;;;15.60;41.00;;;;;;5027884;28;20038;-76
2023/03/21 11:42:52;;;;;;;4.28;1.40;;;15.60;43.60;;;;;;5028436;28;20022;-76
2023/03/21 11:45:27;;;;;;;3.72;1.60;;;15.50;43.40;;;;;;5030997;28;20029;-76
2023/03/21 11:47:55;;;;;;;2.17;1.48;;;15.30;45.60;;;;;;5030616;28;20022;-76
2023/03/21 11:50:35;;;;;;;3.40;1.30;;;15.50;45.10;;;;;;5030684;28;20037;-77
2023/03/21 11:53:26;;;;;;;4.05;1.15;;;15.60;44.50;;;;;;5028054;28;20111;-76
2023/03/21 11:56:21;;;;;;;4.60;1.30;;;15.70;44.70;;;;;;5012210;28;20026;-77
2023/03/21 11:59:22;;;;;;;1.95;1.08;;;15.90;42.80;;;;;;5031343;28;20029;-76
2023/03/21 12:01:51;;;;;;;2.17;1.27;;;16.20;42.40;;;;;;5030105;28;20036;-76
2023/03/21 12:04:40;;;;;;;2.30;0.95;;;16.40;39.70;;;;;;5032003;28;20034;-77
2023/03/21 12:07:22;;;;;;;2.17;0.90;;;16.50;36.70;;;;;;5033432;28;20025;-76
2023/03/21 12:10:10;;;;;;;1.50;1.00;;;16.60;35.20;;;;;;5032798;28;20018;-76
2023/03/21 12:13:01;;;;;;;0.90;0.70;;;16.60;35.20;;;;;;5030736;28;20040;-75
2023/03/21 12:15:56;;;;;;;2.67;1.17;;;17.00;35.20;;;;;;5032176;28;20025;-75
2023/03/21 12:18:43;;;;;;;2.70;0.90;;;17.20;34.50;;;;;;5032002;28;20072;-77
2023/03/21 12:21:18;;;;;;;3.63;1.08;;;17.10;35.20;;;;;;5032681;28;20260;-77
2023/03/21 12:24:06;;;;;;;1.15;0.63;;;17.00;35.00;;;;;;5022137;28;20030;-77
2023/03/21 12:26:39;;;;;;;3.10;0.90;;;17.20;35.30;;;;;;5032111;28;20035;-77
2023/03/21 12:29:11;;;;;;;1.30;0.70;;;17.60;34.70;;;;;;5033837;28;20100;-76
2023/03/21 12:32:01;;;;;;;1.58;1.00;;;17.80;34.10;;;;;;5033935;28;20030;-78
2023/03/21 12:34:48;;;;;;;1.95;0.95;;;18.00;32.20;;;;;;5033706;28;20025;-78
2023/03/21 12:37:36;;;;;;;1.48;0.90;;;18.40;30.30;;;;;;5029567;28;20103;-77
2023/03/21 12:40:36;;;;;;;3.38;0.80;;;19.00;30.30;;;;;;5033341;28;20083;-76
2023/03/21 12:43:23;;;;;;;2.35;1.05;;;19.40;29.10;;;;;;5033221;28;20025;-78
2023/03/21 12:45:54;;;;;;;2.33;0.70;;;19.60;27.70;;;;;;5032038;28;20021;-76
2023/03/21 12:48:47;;;;;;;2.83;0.70;;;19.90;26.70;;;;;;5032946;28;20673;-77
2023/03/21 12:51:18;;;;;;;0.88;0.60;;;19.80;26.90;;;;;;5032809;28;20421;-77
2023/03/21 12:53:59;;;;;;;1.75;0.70;;;19.80;28.50;;;;;;5034852;28;20094;-78
2023/03/21 12:56:33;;;;;;;1.70;0.90;;;20.20;28.10;;;;;;5034935;28;20052;-78
2023/03/21 12:59:19;;;;;;;1.50;0.70;;;20.50;27.70;;;;;;5035093;28;20028;-76
2023/03/21 13:01:49;;;;;;;1.50;0.80;;;20.50;26.80;;;;;;5034898;28;20037;-78
2023/03/21 13:04:35;;;;;;;1.30;0.70;;;20.50;26.50;;;;;;5034464;28;20379;-76
2023/03/21 13:07:04;;;;;;;0.63;0.45;;;20.40;28.00;;;;;;5034880;28;20063;-77
2023/03/21 13:09:35;;;;;;;1.60;0.70;;;20.20;28.80;;;;;;5033673;28;20026;-77
2023/03/21 13:12:14;;;;;;;3.42;1.67;;;20.00;29.40;;;;;;5034601;28;20498;-76